Time;durP1;ratioP1;P1;durP2;ratioP2;P2;SDS_P1;SDS_P2;PMS_P1;PMS_P2;Temp;Humidity;BMP_temperature;BMP_pressure;BME280_temperature;BME280_humidity;BME280_pressure;Samples;Min_cycle;Max_cycle;Signal;HPM_P1;HPM_P2
2021/08/30 00:01:44;;;;;;;18.70;12.48;;;16.50;99.90;;;;;;5013638;28;20033;-67
2021/08/30 00:04:09;;;;;;;15.73;11.98;;;16.50;99.90;;;;;;5028599;28;20029;-69
2021/08/30 00:06:35;;;;;;;17.35;12.23;;;16.50;99.90;;;;;;5030689;28;20174;-66
2021/08/30 00:09:01;;;;;;;19.85;12.70;;;16.40;99.90;;;;;;5029803;28;20468;-66
2021/08/30 00:11:26;;;;;;;19.55;13.55;;;16.40;99.90;;;;;;5032374;28;20029;-67
2021/08/30 00:13:52;;;;;;;18.42;12.50;;;16.40;99.90;;;;;;5029319;28;20124;-66
2021/08/30 00:16:17;;;;;;;23.05;13.55;;;16.40;99.90;;;;;;5025148;28;20038;-69
2021/08/30 00:18:44;;;;;;;19.30;13.63;;;16.30;99.90;;;;;;5026138;28;20049;-66
2021/08/30 00:21:09;;;;;;;17.73;12.55;;;16.30;99.90;;;;;;5029698;28;20026;-66
2021/08/30 00:23:35;;;;;;;18.75;12.48;;;16.30;99.90;;;;;;5030106;28;20040;-66
2021/08/30 00:26:04;;;;;;;21.42;13.05;;;16.30;99.90;;;;;;5030391;28;20032;-66
2021/08/30 00:28:30;;;;;;;20.05;13.57;;;16.40;99.90;;;;;;5028925;28;20049;-66
2021/08/30 00:30:55;;;;;;;18.92;13.13;;;16.30;99.90;;;;;;5028223;28;20026;-67
2021/08/30 00:33:21;;;;;;;19.13;13.02;;;16.30;99.90;;;;;;5027597;28;20025;-66
2021/08/30 00:35:47;;;;;;;19.70;13.57;;;16.30;99.90;;;;;;5030182;28;20025;-67
2021/08/30 00:38:12;;;;;;;19.02;13.25;;;16.40;99.90;;;;;;5023416;28;20076;-69
2021/08/30 00:40:38;;;;;;;18.38;12.93;;;16.40;99.90;;;;;;5030019;28;20566;-67
2021/08/30 00:43:04;;;;;;;18.58;12.75;;;16.40;99.90;;;;;;5008646;28;20496;-65
2021/08/30 00:45:31;;;;;;;19.13;13.23;;;16.40;99.90;;;;;;5030718;28;20044;-66
2021/08/30 00:47:57;;;;;;;18.02;12.75;;;16.40;99.90;;;;;;5030112;28;20056;-66
2021/08/30 00:50:23;;;;;;;15.90;12.38;;;16.40;99.90;;;;;;5033125;28;20586;-66
2021/08/30 00:52:51;;;;;;;17.45;12.98;;;16.40;99.90;;;;;;5030835;28;20033;-68
2021/08/30 00:55:17;;;;;;;18.70;12.90;;;16.40;99.90;;;;;;5029683;28;20022;-66
2021/08/30 00:57:43;;;;;;;15.77;12.25;;;16.40;99.90;;;;;;5027425;28;20064;-66
2021/08/30 01:00:10;;;;;;;18.98;12.70;;;16.40;99.90;;;;;;5031634;28;20108;-66
2021/08/30 01:02:36;;;;;;;19.60;12.90;;;16.40;99.90;;;;;;5027766;28;20030;-67
2021/08/30 01:05:03;;;;;;;19.55;13.63;;;16.40;99.90;;;;;;5029935;28;20033;-66
2021/08/30 01:07:49;;;;;;;17.20;11.85;;;16.30;99.90;;;;;;5012363;28;20497;-65
2021/08/30 01:10:29;;;;;;;22.17;14.20;;;16.30;99.90;;;;;;5028642;28;20026;-66
2021/08/30 01:13:03;;;;;;;18.77;12.90;;;16.30;99.90;;;;;;5026387;28;20076;-65
2021/08/30 01:15:43;;;;;;;18.00;12.77;;;16.30;99.90;;;;;;5013002;28;20029;-67
2021/08/30 01:18:21;;;;;;;17.45;12.50;;;16.30;99.90;;;;;;5012598;28;20025;-65
2021/08/30 01:21:10;;;;;;;20.88;13.40;;;16.30;99.90;;;;;;5025733;28;20033;-67
2021/08/30 01:23:38;;;;;;;15.50;12.80;;;16.30;99.90;;;;;;5030449;28;20535;-66
2021/08/30 01:26:05;;;;;;;17.98;12.60;;;16.30;99.90;;;;;;5028355;28;20076;-66
2021/08/30 01:28:36;;;;;;;17.23;12.73;;;16.30;99.90;;;;;;5024196;28;20587;-66
2021/08/30 01:31:11;;;;;;;18.17;13.38;;;16.30;99.90;;;;;;5027987;28;20025;-68
2021/08/30 01:33:38;;;;;;;17.90;13.48;;;16.30;99.90;;;;;;5004100;28;20025;-67
2021/08/30 01:36:05;;;;;;;17.30;13.48;;;16.30;99.90;;;;;;5026295;28;20116;-66
2021/08/30 01:38:31;;;;;;;18.13;12.88;;;16.30;99.90;;;;;;5026845;28;20427;-68
2021/08/30 01:40:59;;;;;;;17.42;13.32;;;16.30;99.90;;;;;;5032691;28;20036;-66
2021/08/30 01:43:24;;;;;;;19.95;12.82;;;16.30;99.90;;;;;;5031464;28;20446;-66
2021/08/30 01:45:50;;;;;;;20.73;13.00;;;16.30;99.90;;;;;;5031153;28;20087;-67
2021/08/30 01:48:18;;;;;;;17.17;13.15;;;16.30;99.90;;;;;;5028237;28;20621;-65
2021/08/30 01:50:44;;;;;;;17.73;13.25;;;16.30;99.90;;;;;;5031657;28;20108;-68
2021/08/30 01:53:11;;;;;;;20.80;14.15;;;16.30;99.90;;;;;;5031780;28;20079;-66
2021/08/30 01:55:46;;;;;;;16.67;13.05;;;16.30;99.90;;;;;;5016187;28;20025;-66
2021/08/30 02:00:48;;;;;;;18.50;14.05;;;16.20;99.90;;;;;;5030218;28;20506;-66
2021/08/30 02:03:17;;;;;;;17.27;13.07;;;16.20;99.90;;;;;;5029233;28;20116;-67
2021/08/30 02:05:48;;;;;;;17.15;12.63;;;16.20;99.90;;;;;;5032668;28;20025;-67
2021/08/30 02:08:15;;;;;;;21.33;13.20;;;16.20;99.90;;;;;;5031296;28;20033;-67
2021/08/30 02:10:45;;;;;;;18.52;13.75;;;16.20;99.90;;;;;;5027596;28;20037;-66
2021/08/30 02:13:15;;;;;;;18.13;12.93;;;16.20;99.90;;;;;;5032913;28;20029;-66
2021/08/30 02:15:42;;;;;;;18.20;13.13;;;16.20;99.90;;;;;;5029242;28;20025;-67
2021/08/30 02:18:32;;;;;;;23.02;13.77;;;16.20;99.90;;;;;;5028990;28;20021;-66
2021/08/30 02:21:16;;;;;;;16.98;13.13;;;16.20;99.90;;;;;;5030195;28;20895;-67
2021/08/30 02:24:13;;;;;;;20.63;14.13;;;16.20;99.90;;;;;;5027443;28;20484;-66
2021/08/30 02:26:51;;;;;;;19.25;13.75;;;16.20;99.90;;;;;;5032260;28;20037;-66
2021/08/30 02:29:22;;;;;;;18.65;13.35;;;16.10;99.90;;;;;;5031790;28;20036;-66
2021/08/30 02:32:01;;;;;;;18.88;13.02;;;16.10;99.90;;;;;;5031435;28;20100;-66
2021/08/30 02:34:29;;;;;;;17.75;12.50;;;16.20;99.90;;;;;;5030885;28;20036;-65
2021/08/30 02:36:57;;;;;;;18.10;12.85;;;16.10;99.90;;;;;;5033271;28;20038;-68
2021/08/30 02:39:24;;;;;;;18.70;13.57;;;16.10;99.90;;;;;;5031198;28;20030;-66
2021/08/30 02:41:51;;;;;;;18.02;13.05;;;16.10;99.90;;;;;;5032289;28;20148;-65
2021/08/30 02:44:17;;;;;;;21.50;13.52;;;16.10;99.90;;;;;;5032714;28;20552;-66
2021/08/30 02:46:47;;;;;;;18.92;13.43;;;16.10;99.90;;;;;;5032651;28;20484;-66
2021/08/30 02:49:14;;;;;;;16.40;12.77;;;16.10;99.90;;;;;;5033240;28;20045;-68
2021/08/30 02:51:42;;;;;;;17.27;13.25;;;16.10;99.90;;;;;;5029292;28;20345;-65
2021/08/30 02:54:09;;;;;;;16.63;12.23;;;16.10;99.90;;;;;;5030054;28;20024;-66
2021/08/30 02:56:40;;;;;;;21.42;14.02;;;16.10;99.90;;;;;;5029836;28;20040;-65
2021/08/30 02:59:06;;;;;;;;;;;16.20;99.90;;;;;;5031109;28;20028;-66
2021/08/30 03:01:33;;;;;;;18.52;13.00;;;16.10;99.90;;;;;;5029540;28;19909;-65
2021/08/30 03:03:59;;;;;;;17.67;12.52;;;16.10;99.90;;;;;;5032502;28;20083;-66
2021/08/30 03:06:26;;;;;;;17.00;12.32;;;16.10;99.90;;;;;;5030281;28;20041;-66
2021/08/30 03:08:52;;;;;;;20.75;12.77;;;16.10;99.90;;;;;;5028993;28;20049;-66
2021/08/30 03:11:21;;;;;;;20.55;12.95;;;16.10;99.90;;;;;;5029077;28;20029;-66
2021/08/30 03:13:48;;;;;;;18.05;12.35;;;16.10;99.90;;;;;;5033631;28;20025;-66
2021/08/30 03:16:14;;;;;;;19.77;12.82;;;16.10;99.90;;;;;;5029883;28;20120;-68
2021/08/30 03:18:41;;;;;;;22.63;13.60;;;16.10;99.90;;;;;;5014279;28;20029;-66
2021/08/30 03:21:08;;;;;;;21.15;12.88;;;16.10;99.90;;;;;;5027364;28;20372;-67
2021/08/30 03:23:36;;;;;;;18.45;13.05;;;16.10;99.90;;;;;;5033345;28;20482;-68
2021/08/30 03:26:03;;;;;;;20.75;13.00;;;16.10;99.90;;;;;;5030241;28;20029;-68
2021/08/30 03:28:30;;;;;;;19.83;14.07;;;16.10;99.90;;;;;;5027907;28;20065;-66
2021/08/30 03:30:56;;;;;;;20.08;13.75;;;16.10;99.90;;;;;;5030547;28;20490;-67
2021/08/30 03:33:23;;;;;;;20.15;13.50;;;16.00;99.90;;;;;;5029254;28;20033;-67
2021/08/30 03:35:52;;;;;;;20.90;13.98;;;16.00;99.90;;;;;;5027190;28;20025;-66
2021/08/30 03:38:19;;;;;;;17.75;13.68;;;16.00;99.90;;;;;;5029500;28;20468;-67
2021/08/30 03:40:45;;;;;;;21.42;14.35;;;16.00;99.90;;;;;;5027973;28;20036;-66
2021/08/30 03:43:12;;;;;;;24.30;15.73;;;16.00;99.90;;;;;;5032138;28;20037;-67
2021/08/30 03:45:38;;;;;;;22.45;15.18;;;16.00;99.90;;;;;;5029136;28;20083;-67
2021/08/30 03:48:05;;;;;;;17.90;13.50;;;15.90;99.90;;;;;;5010726;28;20529;-69
2021/08/30 03:50:33;;;;;;;19.08;13.40;;;16.00;99.90;;;;;;5027142;28;20025;-66
2021/08/30 03:53:02;;;;;;;18.92;14.50;;;16.00;99.90;;;;;;5029871;28;20325;-69
2021/08/30 03:55:29;;;;;;;22.08;15.35;;;16.00;99.90;;;;;;5029879;28;20021;-66
2021/08/30 03:57:57;;;;;;;18.83;14.27;;;16.00;99.90;;;;;;5025022;28;20029;-69
2021/08/30 04:00:25;;;;;;;22.52;14.65;;;16.00;99.90;;;;;;5029295;28;20044;-68
2021/08/30 04:02:52;;;;;;;22.02;14.20;;;16.00;99.90;;;;;;5014098;28;20032;-67
2021/08/30 04:05:23;;;;;;;20.48;14.88;;;16.00;99.90;;;;;;5016239;28;20033;-68
2021/08/30 04:07:51;;;;;;;24.20;15.50;;;16.00;99.90;;;;;;5028383;28;20021;-65
2021/08/30 04:10:18;;;;;;;23.60;14.57;;;16.00;99.90;;;;;;5030564;28;20034;-66
2021/08/30 04:12:45;;;;;;;22.83;14.93;;;16.00;99.90;;;;;;5030562;28;20036;-66
2021/08/30 04:15:11;;;;;;;22.35;15.27;;;16.00;99.90;;;;;;5026841;28;20030;-66
2021/08/30 04:17:36;;;;;;;20.40;14.68;;;16.00;99.90;;;;;;5025477;28;20565;-66
2021/08/30 04:20:03;;;;;;;20.45;14.30;;;16.00;99.90;;;;;;5026850;28;20072;-66
2021/08/30 04:22:28;;;;;;;22.13;15.43;;;16.00;99.90;;;;;;5031014;28;20033;-66
2021/08/30 04:24:54;;;;;;;21.35;15.07;;;16.00;99.90;;;;;;5026448;28;20030;-66
2021/08/30 04:27:20;;;;;;;21.45;15.15;;;16.00;99.90;;;;;;5028026;28;20037;-67
2021/08/30 04:29:46;;;;;;;19.85;14.60;;;16.00;99.90;;;;;;5027973;28;20080;-69
2021/08/30 04:32:12;;;;;;;20.90;14.88;;;16.00;99.90;;;;;;5011431;28;20502;-66
2021/08/30 04:34:38;;;;;;;19.55;14.90;;;16.00;99.90;;;;;;5030144;28;20033;-69
2021/08/30 04:37:04;;;;;;;20.48;14.80;;;16.00;99.90;;;;;;5033434;28;20110;-69
2021/08/30 04:39:30;;;;;;;22.60;15.00;;;16.00;99.90;;;;;;5028115;28;20040;-67
2021/08/30 04:41:56;;;;;;;24.45;15.45;;;16.00;99.90;;;;;;5029815;28;20030;-70
2021/08/30 04:44:22;;;;;;;21.70;15.55;;;16.00;99.90;;;;;;5026415;28;20407;-68
2021/08/30 04:46:48;;;;;;;22.88;15.45;;;16.00;99.90;;;;;;5025753;28;20021;-66
2021/08/30 04:49:13;;;;;;;22.83;15.60;;;16.00;99.90;;;;;;5028846;28;20087;-66
2021/08/30 04:51:39;;;;;;;27.25;16.58;;;16.00;99.90;;;;;;5027666;28;20458;-67
2021/08/30 04:54:05;;;;;;;21.58;13.80;;;15.90;99.90;;;;;;5029151;28;20467;-68
2021/08/30 04:56:31;;;;;;;18.98;13.82;;;15.90;99.90;;;;;;5029170;28;20056;-67
2021/08/30 04:58:57;;;;;;;22.38;14.75;;;15.90;99.90;;;;;;5027606;28;20495;-67
2021/08/30 05:01:24;;;;;;;22.77;14.30;;;16.00;99.90;;;;;;5025397;28;20038;-69
2021/08/30 05:03:51;;;;;;;21.42;15.10;;;16.00;99.90;;;;;;5026061;28;20032;-67
2021/08/30 05:06:16;;;;;;;18.73;13.48;;;16.00;99.90;;;;;;5029059;28;20037;-66
2021/08/30 05:08:42;;;;;;;18.35;14.23;;;16.00;99.90;;;;;;5028445;28;20073;-66
2021/08/30 05:11:08;;;;;;;19.95;14.68;;;16.00;99.90;;;;;;5027354;28;20368;-67
2021/08/30 05:13:34;;;;;;;22.88;14.82;;;16.10;99.90;;;;;;5022804;28;20030;-67
2021/08/30 05:15:59;;;;;;;19.85;14.60;;;16.10;99.90;;;;;;5029389;28;20036;-68
2021/08/30 05:18:33;;;;;;;22.23;15.00;;;16.00;99.90;;;;;;5033023;28;20127;-66
2021/08/30 05:20:58;;;;;;;21.55;13.65;;;16.10;99.90;;;;;;5032522;28;20084;-66
2021/08/30 05:23:24;;;;;;;21.38;14.43;;;16.10;99.90;;;;;;5033575;28;20022;-66
2021/08/30 05:25:50;;;;;;;22.27;14.18;;;16.10;99.90;;;;;;5035021;28;20037;-67
2021/08/30 05:28:15;;;;;;;21.98;14.77;;;16.20;99.90;;;;;;5011368;28;20025;-69
2021/08/30 05:30:41;;;;;;;18.55;13.75;;;16.20;99.90;;;;;;5030765;28;20052;-67
2021/08/30 05:33:07;;;;;;;25.55;15.27;;;16.20;99.90;;;;;;5015877;28;20091;-67
2021/08/30 05:35:33;;;;;;;22.52;15.05;;;16.20;99.90;;;;;;5029956;28;20034;-68
2021/08/30 05:37:58;;;;;;;21.48;14.57;;;16.20;99.90;;;;;;5032558;28;20041;-67
2021/08/30 05:40:24;;;;;;;20.05;14.02;;;16.20;99.90;;;;;;5031302;28;20029;-69
2021/08/30 05:42:50;;;;;;;19.35;14.02;;;16.20;99.90;;;;;;5033598;28;20403;-71
2021/08/30 05:45:15;;;;;;;22.58;14.23;;;16.20;99.90;;;;;;5033552;28;20109;-68
2021/08/30 05:47:42;;;;;;;19.52;14.00;;;16.20;99.90;;;;;;5036762;28;20407;-67
2021/08/30 05:50:09;;;;;;;21.25;14.88;;;16.20;99.90;;;;;;5014478;28;20022;-67
2021/08/30 05:52:35;;;;;;;18.42;13.27;;;16.20;99.90;;;;;;5032199;28;20025;-68
2021/08/30 05:55:00;;;;;;;19.15;13.15;;;16.20;99.90;;;;;;5032998;28;20374;-66
2021/08/30 05:57:26;;;;;;;20.17;13.45;;;16.20;99.90;;;;;;5030438;28;20037;-68
2021/08/30 05:59:52;;;;;;;22.10;14.48;;;16.20;99.90;;;;;;5032570;28;20101;-68
2021/08/30 06:02:17;;;;;;;21.15;13.32;;;16.20;99.90;;;;;;5028624;28;20036;-67
2021/08/30 06:04:43;;;;;;;19.35;13.63;;;16.20;99.90;;;;;;5015238;28;20072;-67
2021/08/30 06:07:09;;;;;;;20.13;12.55;;;16.30;99.90;;;;;;5029043;28;20041;-68
2021/08/30 06:09:35;;;;;;;18.25;13.40;;;16.30;99.90;;;;;;5027611;28;20032;-68
2021/08/30 06:12:01;;;;;;;20.27;13.15;;;16.40;99.90;;;;;;5029009;28;20098;-69
2021/08/30 06:14:27;;;;;;;20.50;13.70;;;16.40;99.90;;;;;;5030464;28;20509;-69
2021/08/30 06:16:52;;;;;;;17.80;12.93;;;16.40;99.90;;;;;;5029744;28;20014;-71
2021/08/30 06:19:18;;;;;;;18.33;12.48;;;16.50;99.90;;;;;;5030859;28;20034;-71
2021/08/30 06:21:44;;;;;;;20.67;12.35;;;16.50;99.90;;;;;;5031138;28;20026;-71
2021/08/30 06:24:10;;;;;;;16.67;12.05;;;16.50;99.90;;;;;;5013607;28;20037;-71
2021/08/30 06:26:37;;;;;;;16.60;12.02;;;16.50;99.90;;;;;;5030126;28;20033;-71
2021/08/30 06:29:04;;;;;;;15.88;11.48;;;16.50;99.90;;;;;;5029872;28;20033;-70
2021/08/30 06:31:30;;;;;;;15.85;11.15;;;16.60;99.90;;;;;;5029480;28;20021;-68
2021/08/30 06:33:56;;;;;;;16.15;11.10;;;16.60;99.90;;;;;;5011227;28;20510;-69
2021/08/30 06:36:23;;;;;;;17.73;11.30;;;16.60;99.90;;;;;;5029729;28;20025;-70
2021/08/30 06:38:49;;;;;;;19.67;12.23;;;16.70;99.90;;;;;;5028880;28;20391;-70
2021/08/30 06:41:15;;;;;;;14.70;10.43;;;16.80;99.90;;;;;;5011720;28;20022;-71
2021/08/30 06:43:40;;;;;;;20.65;12.65;;;16.90;99.90;;;;;;5028121;28;20609;-69
2021/08/30 06:46:06;;;;;;;14.15;10.57;;;17.00;99.90;;;;;;5029904;28;20029;-71
2021/08/30 06:48:32;;;;;;;15.45;11.13;;;17.00;99.90;;;;;;5012392;28;20087;-70
2021/08/30 06:50:57;;;;;;;14.27;10.23;;;17.00;99.90;;;;;;5029462;28;20045;-69
2021/08/30 06:53:23;;;;;;;15.60;10.18;;;17.10;99.90;;;;;;5032743;28;20076;-70
2021/08/30 06:55:49;;;;;;;13.35;9.48;;;17.10;99.90;;;;;;5029525;28;20487;-70
2021/08/30 06:58:15;;;;;;;13.93;11.10;;;17.10;99.90;;;;;;5027400;28;20037;-69
2021/08/30 07:00:40;;;;;;;14.63;11.05;;;17.10;99.90;;;;;;5027565;28;20507;-68
2021/08/30 07:03:07;;;;;;;14.65;10.50;;;17.10;99.90;;;;;;5027855;28;20511;-69
2021/08/30 07:05:33;;;;;;;13.68;10.15;;;17.10;99.90;;;;;;5010878;28;20033;-69
2021/08/30 07:07:59;;;;;;;17.88;11.13;;;17.20;99.90;;;;;;5028268;28;20471;-68
2021/08/30 07:10:24;;;;;;;12.73;10.18;;;17.20;99.90;;;;;;5028021;28;20044;-69
2021/08/30 07:12:50;;;;;;;14.23;9.75;;;17.30;99.90;;;;;;5026603;28;20025;-69
2021/08/30 07:15:16;;;;;;;12.90;9.82;;;17.30;99.90;;;;;;5011630;28;20144;-69
2021/08/30 07:17:41;;;;;;;13.60;10.10;;;17.40;99.90;;;;;;5025955;28;20040;-69
2021/08/30 07:20:08;;;;;;;12.98;9.10;;;17.50;99.90;;;;;;5012243;28;20889;-68
2021/08/30 07:22:34;;;;;;;11.70;8.65;;;17.60;99.80;;;;;;5031252;28;20039;-71
2021/08/30 07:25:00;;;;;;;11.98;9.15;;;17.60;99.80;;;;;;5031099;28;20033;-71
2021/08/30 07:27:26;;;;;;;11.77;8.73;;;17.70;99.70;;;;;;5028166;28;20036;-68
2021/08/30 07:29:51;;;;;;;11.00;8.90;;;17.80;99.60;;;;;;5029712;28;20040;-66
2021/08/30 07:32:17;;;;;;;13.77;8.82;;;17.80;99.30;;;;;;5026320;28;20033;-68
2021/08/30 07:34:43;;;;;;;14.25;8.95;;;17.80;99.30;;;;;;5028421;28;20108;-66
2021/08/30 07:37:09;;;;;;;10.13;7.78;;;17.80;98.90;;;;;;5026658;28;20026;-66
2021/08/30 07:39:35;;;;;;;9.07;6.97;;;17.80;98.40;;;;;;5029001;28;20026;-68
2021/08/30 07:42:01;;;;;;;10.98;7.70;;;17.80;98.00;;;;;;5028202;28;20037;-68
2021/08/30 07:44:27;;;;;;;11.38;7.55;;;17.70;97.60;;;;;;5029785;28;20456;-68
2021/08/30 07:46:53;;;;;;;15.85;8.63;;;17.70;97.90;;;;;;5029716;28;20040;-69
2021/08/30 07:49:19;;;;;;;11.50;7.65;;;17.70;97.10;;;;;;5028236;28;20029;-68
2021/08/30 07:51:45;;;;;;;10.80;7.07;;;17.60;97.40;;;;;;5029475;28;20395;-68
2021/08/30 07:54:11;;;;;;;8.07;6.38;;;17.60;97.60;;;;;;5026832;28;20088;-68
2021/08/30 07:56:41;;;;;;;12.30;7.35;;;17.70;97.80;;;;;;5026462;28;20099;-66
2021/08/30 07:59:08;;;;;;;9.50;7.28;;;17.70;97.70;;;;;;5026949;28;20490;-68
2021/08/30 08:01:35;;;;;;;11.43;6.80;;;17.80;97.80;;;;;;5024998;28;20470;-67
2021/08/30 08:04:01;;;;;;;11.15;7.30;;;17.80;97.60;;;;;;5028036;28;20049;-67
2021/08/30 08:06:26;;;;;;;10.05;7.30;;;17.90;97.50;;;;;;5028877;28;20105;-68
2021/08/30 08:08:52;;;;;;;9.65;7.40;;;17.90;97.50;;;;;;5029602;28;20095;-68
2021/08/30 08:11:18;;;;;;;9.68;7.13;;;17.90;97.60;;;;;;5023653;28;20057;-66
2021/08/30 08:13:44;;;;;;;10.70;6.80;;;18.00;96.90;;;;;;5029498;28;20060;-68
2021/08/30 08:16:10;;;;;;;10.55;7.00;;;18.00;97.00;;;;;;5028749;28;20045;-69
2021/08/30 08:18:36;;;;;;;9.02;6.82;;;18.00;96.60;;;;;;5028039;28;20034;-67
2021/08/30 08:21:04;;;;;;;11.25;6.45;;;18.00;96.70;;;;;;5028592;28;20057;-67
2021/08/30 08:23:30;;;;;;;10.65;6.78;;;18.00;96.60;;;;;;5029366;28;20056;-68
2021/08/30 08:25:56;;;;;;;9.55;6.85;;;18.00;96.70;;;;;;5029865;28;20030;-68
2021/08/30 08:28:22;;;;;;;10.35;7.05;;;18.10;96.60;;;;;;5028552;28;20043;-68
2021/08/30 08:30:47;;;;;;;7.63;6.28;;;18.20;96.60;;;;;;5028239;28;20101;-65
2021/08/30 08:33:14;;;;;;;8.45;6.10;;;18.20;96.50;;;;;;5028163;28;20149;-67
2021/08/30 08:35:41;;;;;;;9.68;6.68;;;18.20;95.80;;;;;;5028028;28;20033;-68
2021/08/30 08:38:09;;;;;;;7.30;6.07;;;18.20;96.00;;;;;;5028746;28;20036;-68
2021/08/30 08:40:35;;;;;;;10.25;6.45;;;18.20;95.90;;;;;;5028307;28;20095;-67
2021/08/30 08:43:01;;;;;;;8.80;6.53;;;18.10;95.80;;;;;;5028711;28;20037;-67
2021/08/30 08:45:28;;;;;;;8.90;6.22;;;18.10;95.70;;;;;;5009943;28;20034;-67
2021/08/30 08:47:54;;;;;;;8.45;5.78;;;18.10;95.70;;;;;;5028520;28;20121;-67
2021/08/30 08:50:21;;;;;;;8.00;5.45;;;18.00;95.50;;;;;;5031269;28;20535;-68
2021/08/30 08:52:47;;;;;;;10.27;6.00;;;18.00;95.50;;;;;;5033118;28;20076;-66
2021/08/30 08:55:14;;;;;;;8.25;6.05;;;17.90;95.60;;;;;;5032638;28;20025;-66
2021/08/30 08:57:41;;;;;;;8.63;5.97;;;17.90;95.50;;;;;;5031344;28;20057;-68
2021/08/30 09:00:09;;;;;;;7.47;5.97;;;17.90;95.30;;;;;;5032195;28;20073;-66
2021/08/30 09:02:35;;;;;;;9.90;6.20;;;17.90;95.30;;;;;;5031697;28;20116;-67
2021/08/30 09:05:05;;;;;;;9.35;5.97;;;17.90;95.50;;;;;;5033364;28;20036;-67
2021/08/30 09:07:46;;;;;;;14.77;6.57;;;18.00;95.60;;;;;;5031097;28;20052;-66
2021/08/30 09:10:14;;;;;;;8.60;5.88;;;18.00;94.80;;;;;;5031226;28;20034;-68
2021/08/30 09:12:42;;;;;;;7.63;5.28;;;18.10;94.30;;;;;;5030856;28;20125;-67
2021/08/30 09:15:15;;;;;;;8.65;5.53;;;17.90;94.20;;;;;;5032409;28;20025;-67
2021/08/30 09:17:54;;;;;;;7.57;5.38;;;17.90;94.50;;;;;;5034171;28;20060;-67
2021/08/30 09:20:25;;;;;;;6.65;5.50;;;17.90;94.60;;;;;;5030557;28;20048;-67
2021/08/30 09:22:52;;;;;;;10.35;5.28;;;17.90;94.70;;;;;;5031274;28;20037;-68
2021/08/30 09:25:19;;;;;;;7.03;5.22;;;17.80;94.40;;;;;;5030319;28;20033;-67
2021/08/30 09:27:51;;;;;;;9.10;6.00;;;17.80;94.10;;;;;;5032872;28;20092;-68
2021/08/30 09:30:23;;;;;;;8.82;5.05;;;17.80;94.20;;;;;;5031303;28;20037;-67
2021/08/30 09:32:50;;;;;;;6.75;5.30;;;17.80;94.20;;;;;;5013999;28;20637;-68
2021/08/30 09:35:16;;;;;;;7.95;5.78;;;17.80;94.30;;;;;;5029474;28;20033;-67
2021/08/30 09:37:47;;;;;;;6.53;4.90;;;17.70;94.10;;;;;;5031261;28;20041;-67
2021/08/30 09:40:16;;;;;;;6.88;5.50;;;17.80;94.30;;;;;;5030227;28;20633;-67
2021/08/30 09:42:47;;;;;;;8.32;5.70;;;17.70;94.40;;;;;;5013801;28;20388;-67
2021/08/30 09:45:14;;;;;;;;;;;17.80;94.60;;;;;;5012498;28;20040;-68
2021/08/30 09:48:00;;;;;;;12.75;5.97;;;17.70;94.10;;;;;;5029351;28;19948;-67
2021/08/30 09:50:28;;;;;;;7.45;5.22;;;17.70;94.20;;;;;;5031543;28;20460;-64
2021/08/30 09:52:54;;;;;;;6.80;5.40;;;17.60;94.50;;;;;;5014489;28;20500;-67
2021/08/30 09:55:19;;;;;;;11.45;5.40;;;17.60;94.80;;;;;;5031442;28;20070;-68
2021/08/30 09:57:50;;;;;;;11.00;5.72;;;17.60;94.60;;;;;;5031482;28;20030;-68
2021/08/30 10:00:17;;;;;;;8.10;5.22;;;17.60;94.50;;;;;;5030592;28;20104;-67
2021/08/30 10:02:48;;;;;;;9.15;5.90;;;17.60;94.50;;;;;;5030130;28;20600;-67
2021/08/30 10:05:16;;;;;;;9.75;5.43;;;17.60;94.70;;;;;;5031693;28;20037;-68
2021/08/30 10:07:46;;;;;;;9.00;5.22;;;17.60;94.80;;;;;;5013493;28;20042;-67
2021/08/30 10:10:13;;;;;;;9.05;5.63;;;17.70;94.50;;;;;;5030677;28;20026;-67
2021/08/30 10:12:41;;;;;;;7.55;5.57;;;17.70;94.70;;;;;;5030896;28;20096;-67
2021/08/30 10:15:08;;;;;;;11.38;5.93;;;17.70;94.60;;;;;;5032802;28;20060;-67
2021/08/30 10:17:35;;;;;;;8.55;5.28;;;17.70;94.70;;;;;;5032008;28;20612;-68
2021/08/30 10:20:03;;;;;;;7.60;5.60;;;17.70;94.90;;;;;;5031712;28;20507;-68
2021/08/30 10:22:29;;;;;;;7.55;6.13;;;17.70;95.00;;;;;;5032079;28;20037;-69
2021/08/30 10:24:55;;;;;;;10.98;6.30;;;17.70;95.10;;;;;;5010310;28;20025;-67
2021/08/30 10:27:31;;;;;;;10.95;6.47;;;17.80;95.10;;;;;;5030535;28;20033;-67
2021/08/30 10:30:06;;;;;;;14.68;6.15;;;17.80;95.20;;;;;;5029712;28;20029;-67
2021/08/30 10:32:41;;;;;;;9.73;6.07;;;17.80;94.70;;;;;;5030424;28;20025;-67
2021/08/30 10:35:17;;;;;;;8.60;5.88;;;17.90;94.70;;;;;;5029360;28;20032;-68
2021/08/30 10:38:01;;;;;;;10.27;6.35;;;18.00;94.80;;;;;;5030269;28;20038;-68
2021/08/30 10:40:36;;;;;;;8.60;5.57;;;18.10;94.60;;;;;;5013458;28;20087;-68
2021/08/30 10:43:04;;;;;;;13.15;5.97;;;18.20;94.60;;;;;;5037502;28;20041;-67
2021/08/30 10:45:36;;;;;;;8.68;6.25;;;18.10;94.70;;;;;;5010470;28;20029;-67
2021/08/30 10:48:04;;;;;;;8.65;5.80;;;18.10;94.70;;;;;;5029141;28;20044;-67
2021/08/30 10:50:31;;;;;;;7.78;5.88;;;18.10;94.50;;;;;;5029778;28;20415;-67
2021/08/30 10:53:15;;;;;;;8.18;5.72;;;18.10;94.70;;;;;;5032476;28;20033;-69
2021/08/30 10:55:44;;;;;;;10.40;6.95;;;18.10;94.70;;;;;;5031301;28;20037;-67
2021/08/30 10:58:17;;;;;;;7.72;5.95;;;18.10;94.40;;;;;;5029695;28;20029;-66
2021/08/30 11:00:43;;;;;;;9.05;5.97;;;18.00;94.70;;;;;;5030473;28;20084;-66
2021/08/30 11:03:09;;;;;;;8.98;6.25;;;18.10;94.80;;;;;;5030645;28;20045;-66
2021/08/30 11:05:35;;;;;;;10.40;6.25;;;18.20;94.80;;;;;;5036960;28;20025;-67
2021/08/30 11:08:02;;;;;;;8.32;5.55;;;18.50;94.70;;;;;;5027876;28;20033;-67
2021/08/30 11:10:29;;;;;;;9.25;6.13;;;18.90;94.20;;;;;;5031144;28;20515;-65
2021/08/30 11:12:56;;;;;;;6.97;5.40;;;19.10;93.20;;;;;;5029937;28;20030;-67
2021/08/30 11:15:21;;;;;;;7.30;5.13;;;19.20;92.80;;;;;;5028389;28;20057;-66
2021/08/30 11:17:47;;;;;;;20.15;12.57;;;19.00;92.70;;;;;;5029001;28;20631;-67
2021/08/30 11:20:17;;;;;;;31.77;16.48;;;19.20;93.40;;;;;;5031051;28;20033;-66
2021/08/30 11:22:54;;;;;;;15.45;9.82;;;19.30;93.10;;;;;;5029782;28;20021;-66
2021/08/30 11:25:19;;;;;;;18.88;10.73;;;19.30;92.90;;;;;;5029439;28;20087;-66
2021/08/30 11:27:45;;;;;;;21.52;8.35;;;19.40;93.30;;;;;;5028861;28;20030;-66
2021/08/30 11:30:12;;;;;;;10.02;6.53;;;19.40;93.10;;;;;;5029397;28;20032;-66
2021/08/30 11:32:40;;;;;;;9.20;6.78;;;19.40;92.70;;;;;;5029801;28;20581;-65
2021/08/30 11:35:12;;;;;;;8.15;5.90;;;19.40;93.00;;;;;;5035917;28;20020;-67
2021/08/30 11:37:38;;;;;;;7.43;5.47;;;19.30;92.70;;;;;;5028476;28;20049;-67
2021/08/30 11:40:10;;;;;;;6.43;5.10;;;19.10;92.50;;;;;;5028121;28;20042;-66
2021/08/30 11:42:36;;;;;;;7.07;5.03;;;18.90;92.80;;;;;;5030509;28;20809;-66
2021/08/30 11:45:05;;;;;;;6.50;5.40;;;18.80;92.70;;;;;;5030063;28;20491;-66
2021/08/30 11:47:31;;;;;;;9.73;5.82;;;18.70;93.30;;;;;;5025949;28;20522;-68
2021/08/30 11:49:59;;;;;;;7.43;5.15;;;18.70;93.50;;;;;;5027909;28;20479;-69
2021/08/30 11:52:32;;;;;;;6.68;5.30;;;18.60;93.90;;;;;;5029705;28;20050;-66
2021/08/30 11:55:02;;;;;;;8.10;5.20;;;18.60;93.80;;;;;;5029055;28;20021;-68
2021/08/30 11:57:42;;;;;;;7.95;6.13;;;18.70;93.80;;;;;;5030395;28;20082;-67
2021/08/30 12:00:10;;;;;;;298.00;247.45;;;18.80;93.70;;;;;;5011955;28;20030;-67
2021/08/30 12:02:37;;;;;;;66.28;46.53;;;18.80;93.70;;;;;;5029238;28;20043;-68
2021/08/30 12:05:07;;;;;;;67.85;53.03;;;18.80;93.40;;;;;;5029044;28;20029;-67
2021/08/30 12:07:37;;;;;;;8.15;6.85;;;18.70;93.40;;;;;;5034603;28;20044;-67
2021/08/30 12:10:05;;;;;;;7.95;5.30;;;18.70;93.40;;;;;;5030376;28;20452;-67
2021/08/30 12:12:38;;;;;;;7.80;5.25;;;18.60;93.20;;;;;;5029413;28;20028;-67
2021/08/30 12:15:14;;;;;;;8.48;5.53;;;18.60;93.30;;;;;;5029277;28;20021;-67
2021/08/30 12:17:50;;;;;;;7.82;5.45;;;18.60;93.50;;;;;;5027638;28;20087;-67
2021/08/30 12:20:19;;;;;;;6.95;4.78;;;18.60;93.40;;;;;;5027947;28;20549;-66
2021/08/30 12:22:48;;;;;;;9.65;5.47;;;18.80;93.60;;;;;;5028375;28;20060;-67
2021/08/30 12:25:18;;;;;;;9.48;5.28;;;18.80;93.30;;;;;;5027612;28;20112;-66
2021/08/30 12:27:45;;;;;;;6.45;5.05;;;18.80;93.10;;;;;;5028018;28;20120;-67
2021/08/30 12:30:15;;;;;;;10.02;6.20;;;18.70;93.30;;;;;;5029583;28;20033;-67
2021/08/30 12:33:02;;;;;;;6.90;5.15;;;18.70;93.30;;;;;;5028706;28;20498;-68
2021/08/30 12:35:43;;;;;;;8.07;5.88;;;18.70;93.40;;;;;;5028824;28;20494;-73
2021/08/30 12:38:10;;;;;;;8.25;5.80;;;18.60;93.60;;;;;;5034398;28;20084;-72
2021/08/30 12:40:39;;;;;;;10.80;5.95;;;18.60;93.80;;;;;;5028268;28;20383;-73